sensor_id;sensor_type;location;lat;lon;timestamp;temperature;humidity
23149;DHT22;11743;51.228;22.498;2023-08-24T00:00:19;13.90;1.00
23149;DHT22;11743;51.228;22.498;2023-08-24T00:00:41;13.90;1.00
23149;DHT22;11743;51.228;22.498;2023-08-24T00:01:03;13.90;1.00
23149;DHT22;11743;51.228;22.498;2023-08-24T00:01:26;13.90;1.00
23149;DHT22;11743;51.228;22.498;2023-08-24T00:01:48;13.90;1.00
23149;DHT22;11743;51.228;22.498;2023-08-24T00:02:10;13.90;1.00
23149;DHT22;11743;51.228;22.498;2023-08-24T00:02:32;13.90;1.00
23149;DHT22;11743;51.228;22.498;2023-08-24T00:02:54;13.90;1.00
23149;DHT22;11743;51.228;22.498;2023-08-24T00:03:16;13.90;1.00
23149;DHT22;11743;51.228;22.498;2023-08-24T00:03:38;13.90;1.00
23149;DHT22;11743;51.228;22.498;2023-08-24T00:04:00;13.90;1.00
23149;DHT22;11743;51.228;22.498;2023-08-24T00:04:22;13.90;1.00
23149;DHT22;11743;51.228;22.498;2023-08-24T00:04:44;13.90;1.00
23149;DHT22;11743;51.228;22.498;2023-08-24T00:05:07;13.90;1.00
23149;DHT22;11743;51.228;22.498;2023-08-24T00:05:32;13.80;1.00
23149;DHT22;11743;51.228;22.498;2023-08-24T00:05:54;13.80;1.00
23149;DHT22;11743;51.228;22.498;2023-08-24T00:06:15;13.80;1.00
23149;DHT22;11743;51.228;22.498;2023-08-24T00:06:38;13.80;1.00
23149;DHT22;11743;51.228;22.498;2023-08-24T00:07:00;13.80;1.00
23149;DHT22;11743;51.228;22.498;2023-08-24T00:07:22;13.80;1.00
23149;DHT22;11743;51.228;22.498;2023-08-24T00:07:43;13.80;1.00
23149;DHT22;11743;51.228;22.498;2023-08-24T00:08:09;13.80;1.00
23149;DHT22;11743;51.228;22.498;2023-08-24T00:08:31;13.80;1.00
23149;DHT22;11743;51.228;22.498;2023-08-24T00:08:53;13.80;1.00
23149;DHT22;11743;51.228;22.498;2023-08-24T00:09:14;13.80;1.00
23149;DHT22;11743;51.228;22.498;2023-08-24T00:09:37;13.80;1.00
23149;DHT22;11743;51.228;22.498;2023-08-24T00:09:59;13.80;1.00
23149;DHT22;11743;51.228;22.498;2023-08-24T00:10:20;13.80;1.00
23149;DHT22;11743;51.228;22.498;2023-08-24T00:10:43;13.80;1.00
23149;DHT22;11743;51.228;22.498;2023-08-24T00:11:08;13.80;1.00
23149;DHT22;11743;51.228;22.498;2023-08-24T00:11:29;13.80;1.00
23149;DHT22;11743;51.228;22.498;2023-08-24T00:11:52;13.80;1.00
23149;DHT22;11743;51.228;22.498;2023-08-24T00:12:14;13.80;1.00
23149;DHT22;11743;51.228;22.498;2023-08-24T00:12:36;13.80;1.00
23149;DHT22;11743;51.228;22.498;2023-08-24T00:12:58;13.80;1.00
23149;DHT22;11743;51.228;22.498;2023-08-24T00:13:20;13.80;1.00
23149;DHT22;11743;51.228;22.498;2023-08-24T00:13:42;13.80;1.00
23149;DHT22;11743;51.228;22.498;2023-08-24T00:14:13;13.80;1.00
23149;DHT22;11743;51.228;22.498;2023-08-24T00:14:35;13.80;1.00
23149;DHT22;11743;51.228;22.498;2023-08-24T00:14:57;13.80;1.00
23149;DHT22;11743;51.228;22.498;2023-08-24T00:15:19;13.80;1.00
23149;DHT22;11743;51.228;22.498;2023-08-24T00:15:41;13.80;1.00
23149;DHT22;11743;51.228;22.498;2023-08-24T00:16:03;13.80;1.00
23149;DHT22;11743;51.228;22.498;2023-08-24T00:16:25;13.80;1.00
23149;DHT22;11743;51.228;22.498;2023-08-24T00:16:47;13.80;1.00
23149;DHT22;11743;51.228;22.498;2023-08-24T00:17:09;13.80;1.00
23149;DHT22;11743;51.228;22.498;2023-08-24T00:17:32;13.80;1.00
23149;DHT22;11743;51.228;22.498;2023-08-24T00:17:54;13.80;1.00
23149;DHT22;11743;51.228;22.498;2023-08-24T00:18:16;13.80;1.00
23149;DHT22;11743;51.228;22.498;2023-08-24T00:18:40;13.80;1.00
23149;DHT22;11743;51.228;22.498;2023-08-24T00:19:01;13.80;1.00
23149;DHT22;11743;51.228;22.498;2023-08-24T00:19:23;13.80;1.00
23149;DHT22;11743;51.228;22.498;2023-08-24T00:19:45;13.80;1.00
23149;DHT22;11743;51.228;22.498;2023-08-24T00:20:08;13.80;1.00
23149;DHT22;11743;51.228;22.498;2023-08-24T00:20:33;13.80;1.00
23149;DHT22;11743;51.228;22.498;2023-08-24T00:20:55;13.80;1.00
23149;DHT22;11743;51.228;22.498;2023-08-24T00:21:17;13.80;1.00
23149;DHT22;11743;51.228;22.498;2023-08-24T00:21:41;13.80;1.00
23149;DHT22;11743;51.228;22.498;2023-08-24T00:22:03;13.80;1.00
23149;DHT22;11743;51.228;22.498;2023-08-24T00:22:25;13.80;1.00
23149;DHT22;11743;51.228;22.498;2023-08-24T00:22:47;13.80;1.00
23149;DHT22;11743;51.228;22.498;2023-08-24T00:23:09;13.80;1.00
23149;DHT22;11743;51.228;22.498;2023-08-24T00:23:31;13.80;1.00
23149;DHT22;11743;51.228;22.498;2023-08-24T00:23:52;13.80;1.00
23149;DHT22;11743;51.228;22.498;2023-08-24T00:24:15;13.80;1.00
23149;DHT22;11743;51.228;22.498;2023-08-24T00:24:36;13.80;1.00
23149;DHT22;11743;51.228;22.498;2023-08-24T00:24:58;13.80;1.00
23149;DHT22;11743;51.228;22.498;2023-08-24T00:25:20;13.80;1.00
23149;DHT22;11743;51.228;22.498;2023-08-24T00:25:42;13.80;1.00
23149;DHT22;11743;51.228;22.498;2023-08-24T00:26:04;13.90;1.00
23149;DHT22;11743;51.228;22.498;2023-08-24T00:26:26;13.90;1.00
23149;DHT22;11743;51.228;22.498;2023-08-24T00:26:47;13.90;1.00
23149;DHT22;11743;51.228;22.498;2023-08-24T00:27:09;13.90;1.00
23149;DHT22;11743;51.228;22.498;2023-08-24T00:27:31;13.90;1.00
23149;DHT22;11743;51.228;22.498;2023-08-24T00:27:54;13.90;1.00
23149;DHT22;11743;51.228;22.498;2023-08-24T00:28:16;13.90;1.00
23149;DHT22;11743;51.228;22.498;2023-08-24T00:28:38;13.90;1.00
23149;DHT22;11743;51.228;22.498;2023-08-24T00:28:59;13.90;1.00
23149;DHT22;11743;51.228;22.498;2023-08-24T00:29:21;13.90;1.00
23149;DHT22;11743;51.228;22.498;2023-08-24T00:29:43;13.90;1.00
23149;DHT22;11743;51.228;22.498;2023-08-24T00:30:07;13.90;1.00
23149;DHT22;11743;51.228;22.498;2023-08-24T00:30:29;13.90;1.00
23149;DHT22;11743;51.228;22.498;2023-08-24T00:30:50;13.90;1.00
23149;DHT22;11743;51.228;22.498;2023-08-24T00:31:14;13.90;1.00
23149;DHT22;11743;51.228;22.498;2023-08-24T00:31:36;13.90;1.00
23149;DHT22;11743;51.228;22.498;2023-08-24T00:31:59;14.00;1.00
23149;DHT22;11743;51.228;22.498;2023-08-24T00:32:22;13.90;1.00
23149;DHT22;11743;51.228;22.498;2023-08-24T00:32:44;13.90;1.00
23149;DHT22;11743;51.228;22.498;2023-08-24T00:33:06;13.90;1.00
23149;DHT22;11743;51.228;22.498;2023-08-24T00:33:28;14.00;1.00
23149;DHT22;11743;51.228;22.498;2023-08-24T00:33:50;14.00;1.00
23149;DHT22;11743;51.228;22.498;2023-08-24T00:34:12;14.00;1.00
23149;DHT22;11743;51.228;22.498;2023-08-24T00:34:34;14.00;1.00
23149;DHT22;11743;51.228;22.498;2023-08-24T00:34:56;13.90;1.00
23149;DHT22;11743;51.228;22.498;2023-08-24T00:35:18;14.00;1.00
23149;DHT22;11743;51.228;22.498;2023-08-24T00:35:40;13.90;1.00
23149;DHT22;11743;51.228;22.498;2023-08-24T00:36:02;14.00;1.00
23149;DHT22;11743;51.228;22.498;2023-08-24T00:36:24;14.00;1.00
23149;DHT22;11743;51.228;22.498;2023-08-24T00:36:46;13.90;1.00
23149;DHT22;11743;51.228;22.498;2023-08-24T00:37:07;13.90;1.00
23149;DHT22;11743;51.228;22.498;2023-08-24T00:37:29;13.90;1.00
23149;DHT22;11743;51.228;22.498;2023-08-24T00:37:52;13.90;1.00
23149;DHT22;11743;51.228;22.498;2023-08-24T00:38:13;14.00;1.00
23149;DHT22;11743;51.228;22.498;2023-08-24T00:38:35;13.90;1.00
23149;DHT22;11743;51.228;22.498;2023-08-24T00:38:58;13.90;1.00
23149;DHT22;11743;51.228;22.498;2023-08-24T00:39:20;13.90;1.00
23149;DHT22;11743;51.228;22.498;2023-08-24T00:39:42;13.90;1.00
23149;DHT22;11743;51.228;22.498;2023-08-24T00:40:05;13.90;1.00
23149;DHT22;11743;51.228;22.498;2023-08-24T00:40:31;13.90;1.00
23149;DHT22;11743;51.228;22.498;2023-08-24T00:40:54;13.90;1.00
23149;DHT22;11743;51.228;22.498;2023-08-24T00:41:17;13.80;1.00
23149;DHT22;11743;51.228;22.498;2023-08-24T00:41:39;13.80;1.00
23149;DHT22;11743;51.228;22.498;2023-08-24T00:42:03;13.80;1.00
23149;DHT22;11743;51.228;22.498;2023-08-24T00:42:24;13.80;1.00
23149;DHT22;11743;51.228;22.498;2023-08-24T00:42:46;13.80;1.00
23149;DHT22;11743;51.228;22.498;2023-08-24T00:43:08;13.80;1.00
23149;DHT22;11743;51.228;22.498;2023-08-24T00:43:30;13.80;1.00
23149;DHT22;11743;51.228;22.498;2023-08-24T00:43:52;13.80;1.00
23149;DHT22;11743;51.228;22.498;2023-08-24T00:44:15;13.80;1.00
23149;DHT22;11743;51.228;22.498;2023-08-24T00:44:36;13.80;1.00
23149;DHT22;11743;51.228;22.498;2023-08-24T00:44:58;13.80;1.00
23149;DHT22;11743;51.228;22.498;2023-08-24T00:45:20;13.80;1.00
23149;DHT22;11743;51.228;22.498;2023-08-24T00:45:42;13.80;1.00
23149;DHT22;11743;51.228;22.498;2023-08-24T00:46:04;13.80;1.00
23149;DHT22;11743;51.228;22.498;2023-08-24T00:46:27;13.80;1.00
23149;DHT22;11743;51.228;22.498;2023-08-24T00:46:49;13.80;1.00
23149;DHT22;11743;51.228;22.498;2023-08-24T00:47:11;13.80;1.00
23149;DHT22;11743;51.228;22.498;2023-08-24T00:47:34;13.80;1.00
23149;DHT22;11743;51.228;22.498;2023-08-24T00:47:56;13.80;1.00
23149;DHT22;11743;51.228;22.498;2023-08-24T00:48:19;13.70;1.00
23149;DHT22;11743;51.228;22.498;2023-08-24T00:48:42;13.80;1.00
23149;DHT22;11743;51.228;22.498;2023-08-24T00:49:04;13.70;1.00
23149;DHT22;11743;51.228;22.498;2023-08-24T00:49:26;13.70;1.00
23149;DHT22;11743;51.228;22.498;2023-08-24T00:49:48;13.70;1.00
23149;DHT22;11743;51.228;22.498;2023-08-24T00:50:10;13.70;1.00
23149;DHT22;11743;51.228;22.498;2023-08-24T00:50:32;13.70;1.00
23149;DHT22;11743;51.228;22.498;2023-08-24T00:50:56;13.70;1.00
23149;DHT22;11743;51.228;22.498;2023-08-24T00:51:18;13.70;1.00
23149;DHT22;11743;51.228;22.498;2023-08-24T00:51:40;13.70;1.00
23149;DHT22;11743;51.228;22.498;2023-08-24T00:52:02;13.70;1.00
23149;DHT22;11743;51.228;22.498;2023-08-24T00:52:25;13.70;1.00
23149;DHT22;11743;51.228;22.498;2023-08-24T00:52:48;13.70;1.00
23149;DHT22;11743;51.228;22.498;2023-08-24T00:53:11;13.70;1.00
23149;DHT22;11743;51.228;22.498;2023-08-24T00:53:33;13.70;1.00
23149;DHT22;11743;51.228;22.498;2023-08-24T00:53:55;13.70;1.00
23149;DHT22;11743;51.228;22.498;2023-08-24T00:54:19;13.70;1.00
23149;DHT22;11743;51.228;22.498;2023-08-24T00:54:41;13.70;1.00
23149;DHT22;11743;51.228;22.498;2023-08-24T00:55:03;13.70;1.00
23149;DHT22;11743;51.228;22.498;2023-08-24T00:55:25;13.70;1.00
23149;DHT22;11743;51.228;22.498;2023-08-24T00:55:48;13.70;1.00
23149;DHT22;11743;51.228;22.498;2023-08-24T00:56:10;13.70;1.00
23149;DHT22;11743;51.228;22.498;2023-08-24T00:56:32;13.70;1.00
23149;DHT22;11743;51.228;22.498;2023-08-24T00:56:54;13.70;1.00
23149;DHT22;11743;51.228;22.498;2023-08-24T00:57:16;13.70;1.00
23149;DHT22;11743;51.228;22.498;2023-08-24T00:57:40;13.60;1.00
23149;DHT22;11743;51.228;22.498;2023-08-24T00:58:03;13.60;1.00
23149;DHT22;11743;51.228;22.498;2023-08-24T00:58:27;13.70;1.00
23149;DHT22;11743;51.228;22.498;2023-08-24T00:58:49;13.60;1.00
23149;DHT22;11743;51.228;22.498;2023-08-24T00:59:11;13.70;1.00
23149;DHT22;11743;51.228;22.498;2023-08-24T00:59:34;13.60;1.00
23149;DHT22;11743;51.228;22.498;2023-08-24T00:59:56;13.70;1.00
23149;DHT22;11743;51.228;22.498;2023-08-24T01:00:18;13.70;1.00
23149;DHT22;11743;51.228;22.498;2023-08-24T01:00:41;13.60;1.00
23149;DHT22;11743;51.228;22.498;2023-08-24T01:01:03;13.70;1.00
23149;DHT22;11743;51.228;22.498;2023-08-24T01:01:25;13.60;1.00
23149;DHT22;11743;51.228;22.498;2023-08-24T01:01:47;13.70;1.00
23149;DHT22;11743;51.228;22.498;2023-08-24T01:02:10;13.70;1.00
23149;DHT22;11743;51.228;22.498;2023-08-24T01:02:33;13.60;1.00
23149;DHT22;11743;51.228;22.498;2023-08-24T01:02:55;13.70;1.00
23149;DHT22;11743;51.228;22.498;2023-08-24T01:03:18;12.60;1.00
23149;DHT22;11743;51.228;22.498;2023-08-24T01:03:40;13.60;1.00
23149;DHT22;11743;51.228;22.498;2023-08-24T01:04:01;13.60;1.00
23149;DHT22;11743;51.228;22.498;2023-08-24T01:04:24;13.60;1.00
23149;DHT22;11743;51.228;22.498;2023-08-24T01:04:47;13.60;1.00
23149;DHT22;11743;51.228;22.498;2023-08-24T01:05:09;13.60;1.00
23149;DHT22;11743;51.228;22.498;2023-08-24T01:05:30;13.60;1.00
23149;DHT22;11743;51.228;22.498;2023-08-24T01:05:52;13.60;1.00
23149;DHT22;11743;51.228;22.498;2023-08-24T01:06:14;13.60;1.00
23149;DHT22;11743;51.228;22.498;2023-08-24T01:06:36;13.60;1.00
23149;DHT22;11743;51.228;22.498;2023-08-24T01:06:58;13.60;1.00
23149;DHT22;11743;51.228;22.498;2023-08-24T01:07:21;13.60;1.00
23149;DHT22;11743;51.228;22.498;2023-08-24T01:07:43;13.60;1.00
23149;DHT22;11743;51.228;22.498;2023-08-24T01:08:04;13.60;1.00
23149;DHT22;11743;51.228;22.498;2023-08-24T01:08:27;13.60;1.00
23149;DHT22;11743;51.228;22.498;2023-08-24T01:08:49;13.60;1.00
23149;DHT22;11743;51.228;22.498;2023-08-24T01:09:10;13.50;1.00
23149;DHT22;11743;51.228;22.498;2023-08-24T01:09:32;13.60;1.00
23149;DHT22;11743;51.228;22.498;2023-08-24T01:09:55;13.50;1.00
23149;DHT22;11743;51.228;22.498;2023-08-24T01:10:17;13.60;1.00
23149;DHT22;11743;51.228;22.498;2023-08-24T01:11:09;13.50;1.00
23149;DHT22;11743;51.228;22.498;2023-08-24T01:11:56;13.50;1.00
23149;DHT22;11743;51.228;22.498;2023-08-24T01:12:28;13.50;1.00
23149;DHT22;11743;51.228;22.498;2023-08-24T01:13:07;13.50;1.00
23149;DHT22;11743;51.228;22.498;2023-08-24T01:13:50;13.50;1.00
23149;DHT22;11743;51.228;22.498;2023-08-24T01:14:23;13.50;1.00
23149;DHT22;11743;51.228;22.498;2023-08-24T01:16:11;13.50;1.00
23149;DHT22;11743;51.228;22.498;2023-08-24T01:16:35;13.50;1.00
23149;DHT22;11743;51.228;22.498;2023-08-24T01:17:04;13.50;1.00
23149;DHT22;11743;51.228;22.498;2023-08-24T01:17:27;13.50;1.00
23149;DHT22;11743;51.228;22.498;2023-08-24T01:17:52;13.50;1.00
23149;DHT22;11743;51.228;22.498;2023-08-24T01:18:16;13.50;1.00
23149;DHT22;11743;51.228;22.498;2023-08-24T01:18:41;13.50;1.00
23149;DHT22;11743;51.228;22.498;2023-08-24T01:19:06;13.50;1.00
23149;DHT22;11743;51.228;22.498;2023-08-24T01:19:42;13.50;1.00
23149;DHT22;11743;51.228;22.498;2023-08-24T01:20:04;13.50;1.00
23149;DHT22;11743;51.228;22.498;2023-08-24T01:20:27;13.50;1.00
23149;DHT22;11743;51.228;22.498;2023-08-24T01:20:50;13.40;1.00
23149;DHT22;11743;51.228;22.498;2023-08-24T01:21:14;13.40;1.00
23149;DHT22;11743;51.228;22.498;2023-08-24T01:21:37;13.40;1.00
23149;DHT22;11743;51.228;22.498;2023-08-24T01:22:01;13.40;1.00
23149;DHT22;11743;51.228;22.498;2023-08-24T01:23:03;13.40;1.00
23149;DHT22;11743;51.228;22.498;2023-08-24T01:23:41;13.40;1.00
23149;DHT22;11743;51.228;22.498;2023-08-24T01:24:12;13.40;1.00
23149;DHT22;11743;51.228;22.498;2023-08-24T01:26:28;13.40;1.00
23149;DHT22;11743;51.228;22.498;2023-08-24T01:26:51;13.40;1.00
23149;DHT22;11743;51.228;22.498;2023-08-24T01:27:14;13.40;1.00
23149;DHT22;11743;51.228;22.498;2023-08-24T01:27:36;13.40;1.00
23149;DHT22;11743;51.228;22.498;2023-08-24T01:27:59;13.40;1.00
23149;DHT22;11743;51.228;22.498;2023-08-24T01:28:23;13.40;1.00
23149;DHT22;11743;51.228;22.498;2023-08-24T01:28:46;13.40;1.00
23149;DHT22;11743;51.228;22.498;2023-08-24T01:29:09;13.40;1.00
23149;DHT22;11743;51.228;22.498;2023-08-24T01:29:31;13.40;1.00
23149;DHT22;11743;51.228;22.498;2023-08-24T01:29:53;13.40;1.00
23149;DHT22;11743;51.228;22.498;2023-08-24T01:30:18;13.40;1.00
23149;DHT22;11743;51.228;22.498;2023-08-24T01:30:43;13.30;1.00
23149;DHT22;11743;51.228;22.498;2023-08-24T01:31:05;13.40;1.00
23149;DHT22;11743;51.228;22.498;2023-08-24T01:31:27;13.40;1.00
23149;DHT22;11743;51.228;22.498;2023-08-24T01:31:49;13.30;1.00
23149;DHT22;11743;51.228;22.498;2023-08-24T01:32:11;13.40;1.00
23149;DHT22;11743;51.228;22.498;2023-08-24T01:32:36;13.40;1.00
23149;DHT22;11743;51.228;22.498;2023-08-24T01:32:58;13.40;1.00
23149;DHT22;11743;51.228;22.498;2023-08-24T01:33:21;13.30;1.00
23149;DHT22;11743;51.228;22.498;2023-08-24T01:33:44;13.30;1.00
23149;DHT22;11743;51.228;22.498;2023-08-24T01:34:06;13.30;1.00
23149;DHT22;11743;51.228;22.498;2023-08-24T01:34:28;13.30;1.00
23149;DHT22;11743;51.228;22.498;2023-08-24T01:34:50;13.30;1.00
23149;DHT22;11743;51.228;22.498;2023-08-24T01:35:12;13.30;1.00
23149;DHT22;11743;51.228;22.498;2023-08-24T01:35:34;13.30;1.00
23149;DHT22;11743;51.228;22.498;2023-08-24T01:35:55;13.30;1.00
23149;DHT22;11743;51.228;22.498;2023-08-24T01:36:17;13.30;1.00
23149;DHT22;11743;51.228;22.498;2023-08-24T01:36:39;13.30;1.00
23149;DHT22;11743;51.228;22.498;2023-08-24T01:37:01;13.30;1.00
23149;DHT22;11743;51.228;22.498;2023-08-24T01:37:23;13.30;1.00
23149;DHT22;11743;51.228;22.498;2023-08-24T01:37:45;13.30;1.00
23149;DHT22;11743;51.228;22.498;2023-08-24T01:38:07;13.20;24.30
23149;DHT22;11743;51.228;22.498;2023-08-24T01:38:30;13.20;51.30
23149;DHT22;11743;51.228;22.498;2023-08-24T01:39:02;13.20;67.30
23149;DHT22;11743;51.228;22.498;2023-08-24T01:39:33;13.30;93.40
23149;DHT22;11743;51.228;22.498;2023-08-24T01:40:05;13.20;99.90
23149;DHT22;11743;51.228;22.498;2023-08-24T01:40:45;13.20;99.90
23149;DHT22;11743;51.228;22.498;2023-08-24T01:41:20;13.20;99.90
23149;DHT22;11743;51.228;22.498;2023-08-24T01:41:46;13.20;99.90
23149;DHT22;11743;51.228;22.498;2023-08-24T01:42:15;13.20;99.90
23149;DHT22;11743;51.228;22.498;2023-08-24T01:43:04;13.20;99.90
23149;DHT22;11743;51.228;22.498;2023-08-24T01:43:30;13.10;99.90
23149;DHT22;11743;51.228;22.498;2023-08-24T01:44:06;13.10;99.90
23149;DHT22;11743;51.228;22.498;2023-08-24T01:44:35;13.10;99.90
23149;DHT22;11743;51.228;22.498;2023-08-24T01:45:00;13.10;99.90
23149;DHT22;11743;51.228;22.498;2023-08-24T01:45:27;13.10;99.90
23149;DHT22;11743;51.228;22.498;2023-08-24T01:45:52;13.10;99.90
23149;DHT22;11743;51.228;22.498;2023-08-24T01:46:16;13.10;99.90
23149;DHT22;11743;51.228;22.498;2023-08-24T01:46:40;13.10;99.90
23149;DHT22;11743;51.228;22.498;2023-08-24T01:47:04;13.10;99.90
23149;DHT22;11743;51.228;22.498;2023-08-24T01:47:27;13.10;99.90
23149;DHT22;11743;51.228;22.498;2023-08-24T01:47:52;13.10;99.90
23149;DHT22;11743;51.228;22.498;2023-08-24T01:48:15;13.10;99.90
23149;DHT22;11743;51.228;22.498;2023-08-24T01:48:38;13.10;99.90
23149;DHT22;11743;51.228;22.498;2023-08-24T01:49:01;13.10;99.90
23149;DHT22;11743;51.228;22.498;2023-08-24T01:49:24;13.10;99.90
23149;DHT22;11743;51.228;22.498;2023-08-24T01:49:46;13.10;99.90
23149;DHT22;11743;51.228;22.498;2023-08-24T01:50:08;13.10;99.90
23149;DHT22;11743;51.228;22.498;2023-08-24T01:50:30;13.10;99.90
23149;DHT22;11743;51.228;22.498;2023-08-24T01:50:53;13.10;99.90
23149;DHT22;11743;51.228;22.498;2023-08-24T01:51:15;13.00;99.90
23149;DHT22;11743;51.228;22.498;2023-08-24T01:51:37;13.10;99.90
23149;DHT22;11743;51.228;22.498;2023-08-24T01:51:59;13.00;99.90
23149;DHT22;11743;51.228;22.498;2023-08-24T01:52:22;13.00;99.90
23149;DHT22;11743;51.228;22.498;2023-08-24T01:52:45;13.00;99.90
23149;DHT22;11743;51.228;22.498;2023-08-24T01:53:07;13.00;99.90
23149;DHT22;11743;51.228;22.498;2023-08-24T01:53:31;13.00;99.90
23149;DHT22;11743;51.228;22.498;2023-08-24T01:53:53;13.00;99.90
23149;DHT22;11743;51.228;22.498;2023-08-24T01:54:15;13.00;99.90
23149;DHT22;11743;51.228;22.498;2023-08-24T01:54:37;13.00;99.90
23149;DHT22;11743;51.228;22.498;2023-08-24T01:54:59;13.00;99.90
23149;DHT22;11743;51.228;22.498;2023-08-24T01:55:21;13.00;99.90
23149;DHT22;11743;51.228;22.498;2023-08-24T01:55:45;13.00;99.90
23149;DHT22;11743;51.228;22.498;2023-08-24T01:56:15;13.00;99.90
23149;DHT22;11743;51.228;22.498;2023-08-24T01:56:37;13.00;99.90
23149;DHT22;11743;51.228;22.498;2023-08-24T01:56:59;12.90;99.90
23149;DHT22;11743;51.228;22.498;2023-08-24T01:57:21;13.00;99.90
23149;DHT22;11743;51.228;22.498;2023-08-24T01:57:42;12.90;99.90
23149;DHT22;11743;51.228;22.498;2023-08-24T01:58:04;12.90;99.90
23149;DHT22;11743;51.228;22.498;2023-08-24T01:58:26;12.90;99.90
23149;DHT22;11743;51.228;22.498;2023-08-24T01:58:48;13.00;99.90
23149;DHT22;11743;51.228;22.498;2023-08-24T01:59:10;12.90;99.90
23149;DHT22;11743;51.228;22.498;2023-08-24T01:59:32;12.90;99.90
23149;DHT22;11743;51.228;22.498;2023-08-24T01:59:54;12.90;99.90
23149;DHT22;11743;51.228;22.498;2023-08-24T02:00:16;12.90;99.90
23149;DHT22;11743;51.228;22.498;2023-08-24T02:00:37;12.90;99.90
23149;DHT22;11743;51.228;22.498;2023-08-24T02:00:59;12.90;99.90
23149;DHT22;11743;51.228;22.498;2023-08-24T02:01:21;12.90;99.90
23149;DHT22;11743;51.228;22.498;2023-08-24T02:01:43;12.90;99.90
23149;DHT22;11743;51.228;22.498;2023-08-24T02:02:05;12.90;99.90
23149;DHT22;11743;51.228;22.498;2023-08-24T02:02:27;12.90;99.90
23149;DHT22;11743;51.228;22.498;2023-08-24T02:02:49;12.90;99.90
23149;DHT22;11743;51.228;22.498;2023-08-24T02:03:11;12.90;99.90
23149;DHT22;11743;51.228;22.498;2023-08-24T02:03:33;12.90;99.90
23149;DHT22;11743;51.228;22.498;2023-08-24T02:03:55;13.00;99.90
23149;DHT22;11743;51.228;22.498;2023-08-24T02:04:18;12.90;99.90
23149;DHT22;11743;51.228;22.498;2023-08-24T02:04:39;12.90;99.90
23149;DHT22;11743;51.228;22.498;2023-08-24T02:05:02;12.90;99.90
23149;DHT22;11743;51.228;22.498;2023-08-24T02:05:24;13.00;99.90
23149;DHT22;11743;51.228;22.498;2023-08-24T02:05:49;13.00;99.90
23149;DHT22;11743;51.228;22.498;2023-08-24T02:06:11;12.90;99.90
23149;DHT22;11743;51.228;22.498;2023-08-24T02:06:33;13.00;99.90
23149;DHT22;11743;51.228;22.498;2023-08-24T02:06:54;13.00;99.90
23149;DHT22;11743;51.228;22.498;2023-08-24T02:07:16;13.00;99.90
23149;DHT22;11743;51.228;22.498;2023-08-24T02:07:39;13.00;99.90
23149;DHT22;11743;51.228;22.498;2023-08-24T02:08:02;13.00;99.90
23149;DHT22;11743;51.228;22.498;2023-08-24T02:08:23;13.00;99.90
23149;DHT22;11743;51.228;22.498;2023-08-24T02:08:45;13.00;99.90
23149;DHT22;11743;51.228;22.498;2023-08-24T02:09:07;13.00;99.90
23149;DHT22;11743;51.228;22.498;2023-08-24T02:09:29;13.00;99.90
23149;DHT22;11743;51.228;22.498;2023-08-24T02:09:51;13.00;99.90
23149;DHT22;11743;51.228;22.498;2023-08-24T02:10:13;13.00;99.90
23149;DHT22;11743;51.228;22.498;2023-08-24T02:10:37;13.00;99.90
23149;DHT22;11743;51.228;22.498;2023-08-24T02:10:59;13.00;99.90
23149;DHT22;11743;51.228;22.498;2023-08-24T02:11:21;13.00;99.90
23149;DHT22;11743;51.228;22.498;2023-08-24T02:11:42;13.00;99.90
23149;DHT22;11743;51.228;22.498;2023-08-24T02:12:04;13.00;99.90
23149;DHT22;11743;51.228;22.498;2023-08-24T02:12:26;13.00;99.90
23149;DHT22;11743;51.228;22.498;2023-08-24T02:12:48;13.00;99.90
23149;DHT22;11743;51.228;22.498;2023-08-24T02:13:09;13.10;99.90
23149;DHT22;11743;51.228;22.498;2023-08-24T02:13:31;13.00;99.90
23149;DHT22;11743;51.228;22.498;2023-08-24T02:13:53;13.00;99.90
23149;DHT22;11743;51.228;22.498;2023-08-24T02:14:15;13.00;99.90
23149;DHT22;11743;51.228;22.498;2023-08-24T02:14:37;13.00;99.90
23149;DHT22;11743;51.228;22.498;2023-08-24T02:14:59;13.00;99.90
23149;DHT22;11743;51.228;22.498;2023-08-24T02:15:21;13.00;99.90
23149;DHT22;11743;51.228;22.498;2023-08-24T02:15:43;13.00;99.90
23149;DHT22;11743;51.228;22.498;2023-08-24T02:16:07;13.00;99.90
23149;DHT22;11743;51.228;22.498;2023-08-24T02:16:30;13.00;99.90
23149;DHT22;11743;51.228;22.498;2023-08-24T02:16:52;13.00;99.90
23149;DHT22;11743;51.228;22.498;2023-08-24T02:17:14;13.00;99.90
23149;DHT22;11743;51.228;22.498;2023-08-24T02:17:36;13.10;99.90
23149;DHT22;11743;51.228;22.498;2023-08-24T02:17:58;13.00;99.90
23149;DHT22;11743;51.228;22.498;2023-08-24T02:18:20;13.00;99.90
23149;DHT22;11743;51.228;22.498;2023-08-24T02:18:41;13.10;99.90
23149;DHT22;11743;51.228;22.498;2023-08-24T02:19:03;13.10;99.90
23149;DHT22;11743;51.228;22.498;2023-08-24T02:19:25;13.00;99.90
23149;DHT22;11743;51.228;22.498;2023-08-24T02:19:47;13.00;99.90
23149;DHT22;11743;51.228;22.498;2023-08-24T02:20:09;13.00;99.90
23149;DHT22;11743;51.228;22.498;2023-08-24T02:20:36;13.10;99.90
23149;DHT22;11743;51.228;22.498;2023-08-24T02:20:58;13.10;99.90
23149;DHT22;11743;51.228;22.498;2023-08-24T02:21:20;13.10;99.90
23149;DHT22;11743;51.228;22.498;2023-08-24T02:21:42;13.10;99.90
23149;DHT22;11743;51.228;22.498;2023-08-24T02:22:04;13.10;99.90
23149;DHT22;11743;51.228;22.498;2023-08-24T02:22:26;13.10;99.90
23149;DHT22;11743;51.228;22.498;2023-08-24T02:22:47;13.10;99.90
23149;DHT22;11743;51.228;22.498;2023-08-24T02:23:09;13.10;99.90
23149;DHT22;11743;51.228;22.498;2023-08-24T02:23:31;13.10;99.90
23149;DHT22;11743;51.228;22.498;2023-08-24T02:23:53;13.10;99.90
23149;DHT22;11743;51.228;22.498;2023-08-24T02:24:14;13.10;99.90
23149;DHT22;11743;51.228;22.498;2023-08-24T02:24:36;13.10;99.90
23149;DHT22;11743;51.228;22.498;2023-08-24T02:24:58;13.10;99.90
23149;DHT22;11743;51.228;22.498;2023-08-24T02:25:20;13.10;99.90
23149;DHT22;11743;51.228;22.498;2023-08-24T02:25:42;13.10;99.90
23149;DHT22;11743;51.228;22.498;2023-08-24T02:26:04;13.10;99.90
23149;DHT22;11743;51.228;22.498;2023-08-24T02:26:26;13.10;99.90
23149;DHT22;11743;51.228;22.498;2023-08-24T02:26:48;13.20;99.90
23149;DHT22;11743;51.228;22.498;2023-08-24T02:27:11;13.20;99.90
23149;DHT22;11743;51.228;22.498;2023-08-24T02:27:33;13.20;99.90
23149;DHT22;11743;51.228;22.498;2023-08-24T02:27:54;13.20;99.90
23149;DHT22;11743;51.228;22.498;2023-08-24T02:28:16;13.10;99.90
23149;DHT22;11743;51.228;22.498;2023-08-24T02:28:38;13.10;99.90
23149;DHT22;11743;51.228;22.498;2023-08-24T02:29:00;13.20;99.90
23149;DHT22;11743;51.228;22.498;2023-08-24T02:29:22;13.20;99.90